sensor_id;sensor_type;location;lat;lon;timestamp;temperature;humidity
67722;SHT31;58309;45.292;11.820;2023-03-03T00:01:23;4.66;95.69
67722;SHT31;58309;45.292;11.820;2023-03-03T00:03:52;4.73;96.18
67722;SHT31;58309;45.292;11.820;2023-03-03T00:06:19;4.75;95.97
67722;SHT31;58309;45.292;11.820;2023-03-03T00:08:45;4.92;95.23
67722;SHT31;58309;45.292;11.820;2023-03-03T00:11:11;4.90;95.49
67722;SHT31;58309;45.292;11.820;2023-03-03T00:13:46;5.07;95.01
67722;SHT31;58309;45.292;11.820;2023-03-03T00:16:26;4.99;95.17
67722;SHT31;58309;45.292;11.820;2023-03-03T00:18:53;4.96;95.12
67722;SHT31;58309;45.292;11.820;2023-03-03T00:21:39;4.89;95.30
67722;SHT31;58309;45.292;11.820;2023-03-03T00:24:20;4.90;95.28
67722;SHT31;58309;45.292;11.820;2023-03-03T00:26:51;5.00;95.30
67722;SHT31;58309;45.292;11.820;2023-03-03T00:31:51;5.19;94.51
67722;SHT31;58309;45.292;11.820;2023-03-03T00:36:43;5.06;94.91
67722;SHT31;58309;45.292;11.820;2023-03-03T00:39:19;5.07;95.08
67722;SHT31;58309;45.292;11.820;2023-03-03T00:41:46;5.00;95.44
67722;SHT31;58309;45.292;11.820;2023-03-03T00:44:46;4.86;95.81
67722;SHT31;58309;45.292;11.820;2023-03-03T00:47:25;4.86;96.05
67722;SHT31;58309;45.292;11.820;2023-03-03T00:49:53;4.86;95.88
67722;SHT31;58309;45.292;11.820;2023-03-03T00:52:19;4.90;95.77
67722;SHT31;58309;45.292;11.820;2023-03-03T00:54:45;4.93;95.61
67722;SHT31;58309;45.292;11.820;2023-03-03T00:57:11;4.86;95.85
67722;SHT31;58309;45.292;11.820;2023-03-03T00:59:40;4.82;95.91
67722;SHT31;58309;45.292;11.820;2023-03-03T01:02:05;4.72;95.97
67722;SHT31;58309;45.292;11.820;2023-03-03T01:04:31;4.65;96.61
67722;SHT31;58309;45.292;11.820;2023-03-03T01:06:56;4.65;96.54
67722;SHT31;58309;45.292;11.820;2023-03-03T01:09:22;4.66;96.48
67722;SHT31;58309;45.292;11.820;2023-03-03T01:11:49;4.64;96.40
67722;SHT31;58309;45.292;11.820;2023-03-03T01:14:15;4.69;96.26
67722;SHT31;58309;45.292;11.820;2023-03-03T01:16:40;4.75;96.30
67722;SHT31;58309;45.292;11.820;2023-03-03T01:19:06;4.68;96.18
67722;SHT31;58309;45.292;11.820;2023-03-03T01:21:32;4.66;96.39
67722;SHT31;58309;45.292;11.820;2023-03-03T01:23:58;4.58;96.45
67722;SHT31;58309;45.292;11.820;2023-03-03T01:26:23;4.51;96.82
67722;SHT31;58309;45.292;11.820;2023-03-03T01:28:49;4.49;96.85
67722;SHT31;58309;45.292;11.820;2023-03-03T01:31:14;4.54;96.73
67722;SHT31;58309;45.292;11.820;2023-03-03T01:33:40;4.52;96.65
67722;SHT31;58309;45.292;11.820;2023-03-03T01:36:06;4.58;96.39
67722;SHT31;58309;45.292;11.820;2023-03-03T01:38:35;4.56;96.23
67722;SHT31;58309;45.292;11.820;2023-03-03T01:41:00;4.56;95.95
67722;SHT31;58309;45.292;11.820;2023-03-03T01:43:27;4.58;95.97
67722;SHT31;58309;45.292;11.820;2023-03-03T01:48:39;4.71;95.65
67722;SHT31;58309;45.292;11.820;2023-03-03T01:51:20;4.76;94.88
67722;SHT31;58309;45.292;11.820;2023-03-03T01:53:51;4.82;94.59
67722;SHT31;58309;45.292;11.820;2023-03-03T01:56:17;4.83;94.37
67722;SHT31;58309;45.292;11.820;2023-03-03T02:01:20;4.87;94.23
67722;SHT31;58309;45.292;11.820;2023-03-03T02:03:47;4.85;94.43
67722;SHT31;58309;45.292;11.820;2023-03-03T02:06:15;4.80;94.00
67722;SHT31;58309;45.292;11.820;2023-03-03T02:11:25;4.80;93.55
67722;SHT31;58309;45.292;11.820;2023-03-03T02:13:52;4.75;93.83
67722;SHT31;58309;45.292;11.820;2023-03-03T02:16:17;4.80;93.44
67722;SHT31;58309;45.292;11.820;2023-03-03T02:18:43;4.72;93.47
67722;SHT31;58309;45.292;11.820;2023-03-03T02:21:17;4.65;93.65
67722;SHT31;58309;45.292;11.820;2023-03-03T02:26:21;4.54;93.77
67722;SHT31;58309;45.292;11.820;2023-03-03T02:28:47;4.56;93.68
67722;SHT31;58309;45.292;11.820;2023-03-03T02:31:16;4.51;93.69
67722;SHT31;58309;45.292;11.820;2023-03-03T02:33:44;4.55;93.56
67722;SHT31;58309;45.292;11.820;2023-03-03T02:36:12;4.48;94.01
67722;SHT31;58309;45.292;11.820;2023-03-03T02:46:48;4.40;94.63
67722;SHT31;58309;45.292;11.820;2023-03-03T02:49:17;4.38;94.61
67722;SHT31;58309;45.292;11.820;2023-03-03T02:51:43;4.49;94.06
67722;SHT31;58309;45.292;11.820;2023-03-03T02:54:11;4.38;94.45
67722;SHT31;58309;45.292;11.820;2023-03-03T02:56:37;4.31;94.59
67722;SHT31;58309;45.292;11.820;2023-03-03T02:59:03;4.21;94.80
67722;SHT31;58309;45.292;11.820;2023-03-03T03:01:29;4.10;95.33
67722;SHT31;58309;45.292;11.820;2023-03-03T03:03:57;3.96;95.48
67722;SHT31;58309;45.292;11.820;2023-03-03T03:06:23;3.94;95.50
67722;SHT31;58309;45.292;11.820;2023-03-03T03:08:48;3.96;95.82
67722;SHT31;58309;45.292;11.820;2023-03-03T03:11:14;3.98;95.51
67722;SHT31;58309;45.292;11.820;2023-03-03T03:13:39;3.94;95.40
67722;SHT31;58309;45.292;11.820;2023-03-03T03:16:05;3.91;95.73
67722;SHT31;58309;45.292;11.820;2023-03-03T03:18:31;3.97;95.59
67722;SHT31;58309;45.292;11.820;2023-03-03T03:20:56;3.93;95.36
67722;SHT31;58309;45.292;11.820;2023-03-03T03:23:22;3.94;95.21
67722;SHT31;58309;45.292;11.820;2023-03-03T03:25:47;3.93;95.32
67722;SHT31;58309;45.292;11.820;2023-03-03T03:28:14;3.96;95.23
67722;SHT31;58309;45.292;11.820;2023-03-03T03:30:41;3.83;95.30
67722;SHT31;58309;45.292;11.820;2023-03-03T03:33:07;3.86;95.60
67722;SHT31;58309;45.292;11.820;2023-03-03T03:35:33;3.82;95.46
67722;SHT31;58309;45.292;11.820;2023-03-03T03:37:59;3.87;95.37
67722;SHT31;58309;45.292;11.820;2023-03-03T03:40:25;3.77;95.26
67722;SHT31;58309;45.292;11.820;2023-03-03T03:42:51;3.93;95.27
67722;SHT31;58309;45.292;11.820;2023-03-03T03:45:17;3.83;95.16
67722;SHT31;58309;45.292;11.820;2023-03-03T03:47:43;3.85;95.27
67722;SHT31;58309;45.292;11.820;2023-03-03T03:50:09;3.94;95.27
67722;SHT31;58309;45.292;11.820;2023-03-03T03:52:35;3.77;95.27
67722;SHT31;58309;45.292;11.820;2023-03-03T03:55:01;3.73;95.54
67722;SHT31;58309;45.292;11.820;2023-03-03T03:57:26;3.60;96.02
67722;SHT31;58309;45.292;11.820;2023-03-03T03:59:52;3.66;95.98
67722;SHT31;58309;45.292;11.820;2023-03-03T04:02:18;3.51;96.00
67722;SHT31;58309;45.292;11.820;2023-03-03T04:04:43;3.59;96.22
67722;SHT31;58309;45.292;11.820;2023-03-03T04:07:09;3.56;96.14
67722;SHT31;58309;45.292;11.820;2023-03-03T04:09:34;3.69;95.94
67722;SHT31;58309;45.292;11.820;2023-03-03T04:12:00;3.62;95.70
67722;SHT31;58309;45.292;11.820;2023-03-03T04:14:25;3.48;96.17
67722;SHT31;58309;45.292;11.820;2023-03-03T04:16:51;3.38;96.91
67722;SHT31;58309;45.292;11.820;2023-03-03T04:19:16;3.22;97.10
67722;SHT31;58309;45.292;11.820;2023-03-03T04:21:42;3.25;97.47
67722;SHT31;58309;45.292;11.820;2023-03-03T04:24:07;3.28;97.71
67722;SHT31;58309;45.292;11.820;2023-03-03T04:26:33;3.36;96.95
67722;SHT31;58309;45.292;11.820;2023-03-03T04:28:58;3.43;96.73
67722;SHT31;58309;45.292;11.820;2023-03-03T04:31:24;3.38;96.83
67722;SHT31;58309;45.292;11.820;2023-03-03T04:33:51;3.42;96.77
67722;SHT31;58309;45.292;11.820;2023-03-03T04:36:18;3.42;96.84
67722;SHT31;58309;45.292;11.820;2023-03-03T04:38:43;3.38;97.02
67722;SHT31;58309;45.292;11.820;2023-03-03T04:41:09;3.35;97.02
67722;SHT31;58309;45.292;11.820;2023-03-03T04:43:35;3.25;97.05
67722;SHT31;58309;45.292;11.820;2023-03-03T04:46:00;3.11;97.12
67722;SHT31;58309;45.292;11.820;2023-03-03T04:48:26;2.90;96.87
67722;SHT31;58309;45.292;11.820;2023-03-03T04:50:52;2.90;98.35
67722;SHT31;58309;45.292;11.820;2023-03-03T04:53:17;2.83;97.52
67722;SHT31;58309;45.292;11.820;2023-03-03T04:55:43;2.68;97.50
67722;SHT31;58309;45.292;11.820;2023-03-03T04:58:08;2.57;97.58
67722;SHT31;58309;45.292;11.820;2023-03-03T05:00:34;2.47;97.69
67722;SHT31;58309;45.292;11.820;2023-03-03T05:03:00;2.37;97.79
67722;SHT31;58309;45.292;11.820;2023-03-03T05:05:26;2.29;98.12
67722;SHT31;58309;45.292;11.820;2023-03-03T05:07:51;2.25;98.51
67722;SHT31;58309;45.292;11.820;2023-03-03T05:10:17;2.19;98.29
67722;SHT31;58309;45.292;11.820;2023-03-03T05:12:42;2.12;98.36
67722;SHT31;58309;45.292;11.820;2023-03-03T05:15:08;2.12;98.81
67722;SHT31;58309;45.292;11.820;2023-03-03T05:17:34;2.22;99.52
67722;SHT31;58309;45.292;11.820;2023-03-03T05:20:00;2.61;99.99
67722;SHT31;58309;45.292;11.820;2023-03-03T05:22:26;2.73;99.91
67722;SHT31;58309;45.292;11.820;2023-03-03T05:24:51;2.68;99.11
67722;SHT31;58309;45.292;11.820;2023-03-03T05:27:18;2.56;98.40
67722;SHT31;58309;45.292;11.820;2023-03-03T05:29:44;2.63;99.74
67722;SHT31;58309;45.292;11.820;2023-03-03T05:32:09;2.58;98.97
67722;SHT31;58309;45.292;11.820;2023-03-03T05:34:35;2.67;98.64
67722;SHT31;58309;45.292;11.820;2023-03-03T05:37:00;2.61;98.04
67722;SHT31;58309;45.292;11.820;2023-03-03T05:39:28;2.47;97.73
67722;SHT31;58309;45.292;11.820;2023-03-03T05:41:53;2.37;97.92
67722;SHT31;58309;45.292;11.820;2023-03-03T05:44:20;2.25;98.24
67722;SHT31;58309;45.292;11.820;2023-03-03T05:46:45;2.15;98.09
67722;SHT31;58309;45.292;11.820;2023-03-03T05:49:11;2.16;99.00
67722;SHT31;58309;45.292;11.820;2023-03-03T05:51:36;2.22;99.04
67722;SHT31;58309;45.292;11.820;2023-03-03T05:54:02;2.30;98.91
67722;SHT31;58309;45.292;11.820;2023-03-03T05:56:27;2.33;98.72
67722;SHT31;58309;45.292;11.820;2023-03-03T05:58:53;2.33;98.48
67722;SHT31;58309;45.292;11.820;2023-03-03T06:01:18;2.26;98.71
67722;SHT31;58309;45.292;11.820;2023-03-03T06:03:44;2.23;98.54
67722;SHT31;58309;45.292;11.820;2023-03-03T06:06:10;2.18;98.96
67722;SHT31;58309;45.292;11.820;2023-03-03T06:08:36;2.12;98.80
67722;SHT31;58309;45.292;11.820;2023-03-03T06:11:02;2.13;99.25
67722;SHT31;58309;45.292;11.820;2023-03-03T06:13:27;2.18;99.28
67722;SHT31;58309;45.292;11.820;2023-03-03T06:15:53;2.23;99.24
67722;SHT31;58309;45.292;11.820;2023-03-03T06:18:18;2.26;99.19
67722;SHT31;58309;45.292;11.820;2023-03-03T06:20:44;2.33;98.91
67722;SHT31;58309;45.292;11.820;2023-03-03T06:23:10;2.32;98.60
67722;SHT31;58309;45.292;11.820;2023-03-03T06:25:37;2.30;98.73
67722;SHT31;58309;45.292;11.820;2023-03-03T06:28:03;2.26;98.62
67722;SHT31;58309;45.292;11.820;2023-03-03T06:30:29;2.23;98.60
67722;SHT31;58309;45.292;11.820;2023-03-03T06:32:55;2.35;99.08
67722;SHT31;58309;45.292;11.820;2023-03-03T06:35:20;2.42;99.12
67722;SHT31;58309;45.292;11.820;2023-03-03T06:37:46;2.44;99.13
67722;SHT31;58309;45.292;11.820;2023-03-03T06:40:15;2.49;98.66
67722;SHT31;58309;45.292;11.820;2023-03-03T06:42:40;2.49;98.85
67722;SHT31;58309;45.292;11.820;2023-03-03T06:45:06;2.54;98.98
67722;SHT31;58309;45.292;11.820;2023-03-03T06:47:32;2.56;98.56
67722;SHT31;58309;45.292;11.820;2023-03-03T06:49:58;2.61;98.83
67722;SHT31;58309;45.292;11.820;2023-03-03T06:52:25;2.68;98.77
67722;SHT31;58309;45.292;11.820;2023-03-03T06:54:58;2.79;98.91
67722;SHT31;58309;45.292;11.820;2023-03-03T06:57:30;2.88;98.72
67722;SHT31;58309;45.292;11.820;2023-03-03T07:00:14;2.98;98.46
67722;SHT31;58309;45.292;11.820;2023-03-03T07:02:40;3.11;98.64
67722;SHT31;58309;45.292;11.820;2023-03-03T07:07:36;3.45;98.12
67722;SHT31;58309;45.292;11.820;2023-03-03T07:10:06;3.56;97.99
67722;SHT31;58309;45.292;11.820;2023-03-03T07:12:37;3.75;98.17
67722;SHT31;58309;45.292;11.820;2023-03-03T07:15:13;4.13;97.58
67722;SHT31;58309;45.292;11.820;2023-03-03T07:17:43;4.44;97.07
67722;SHT31;58309;45.292;11.820;2023-03-03T07:20:20;4.59;96.99
67722;SHT31;58309;45.292;11.820;2023-03-03T07:22:46;4.79;96.69
67722;SHT31;58309;45.292;11.820;2023-03-03T07:27:54;5.36;94.21
67722;SHT31;58309;45.292;11.820;2023-03-03T07:30:28;5.74;92.43
67722;SHT31;58309;45.292;11.820;2023-03-03T07:32:57;5.99;91.70
67722;SHT31;58309;45.292;11.820;2023-03-03T07:35:42;6.30;91.17
67722;SHT31;58309;45.292;11.820;2023-03-03T07:41:02;6.58;90.48
67722;SHT31;58309;45.292;11.820;2023-03-03T07:43:35;6.68;90.23
67722;SHT31;58309;45.292;11.820;2023-03-03T07:48:40;7.05;87.84
67722;SHT31;58309;45.292;11.820;2023-03-03T07:51:27;7.12;88.43
67722;SHT31;58309;45.292;11.820;2023-03-03T07:54:16;7.29;86.56
67722;SHT31;58309;45.292;11.820;2023-03-03T07:56:42;7.42;85.68
67722;SHT31;58309;45.292;11.820;2023-03-03T07:59:34;7.60;86.15
67722;SHT31;58309;45.292;11.820;2023-03-03T08:02:00;7.73;85.81
67722;SHT31;58309;45.292;11.820;2023-03-03T08:04:41;7.89;85.86
67722;SHT31;58309;45.292;11.820;2023-03-03T08:07:15;8.10;83.37
67722;SHT31;58309;45.292;11.820;2023-03-03T08:10:00;8.27;83.56
67722;SHT31;58309;45.292;11.820;2023-03-03T08:14:53;8.51;82.62
67722;SHT31;58309;45.292;11.820;2023-03-03T08:17:33;8.61;81.10
67722;SHT31;58309;45.292;11.820;2023-03-03T08:20:00;8.70;79.49
67722;SHT31;58309;45.292;11.820;2023-03-03T08:22:34;8.86;79.54
67722;SHT31;58309;45.292;11.820;2023-03-03T08:25:00;8.94;79.62
67722;SHT31;58309;45.292;11.820;2023-03-03T08:27:26;9.07;78.36
67722;SHT31;58309;45.292;11.820;2023-03-03T08:29:52;9.21;78.81
67722;SHT31;58309;45.292;11.820;2023-03-03T08:32:17;9.33;77.78
67722;SHT31;58309;45.292;11.820;2023-03-03T08:34:43;9.52;76.57
67722;SHT31;58309;45.292;11.820;2023-03-03T08:37:08;9.61;76.95
67722;SHT31;58309;45.292;11.820;2023-03-03T08:39:34;9.74;76.08
67722;SHT31;58309;45.292;11.820;2023-03-03T08:41:59;9.78;74.24
67722;SHT31;58309;45.292;11.820;2023-03-03T08:44:25;9.92;75.82
67722;SHT31;58309;45.292;11.820;2023-03-03T08:46:51;10.05;74.96
67722;SHT31;58309;45.292;11.820;2023-03-03T08:49:16;10.19;74.71
67722;SHT31;58309;45.292;11.820;2023-03-03T08:51:41;10.36;74.40
67722;SHT31;58309;45.292;11.820;2023-03-03T08:54:07;10.59;72.63
67722;SHT31;58309;45.292;11.820;2023-03-03T08:56:33;10.90;71.54
67722;SHT31;58309;45.292;11.820;2023-03-03T08:58:58;11.53;67.03
67722;SHT31;58309;45.292;11.820;2023-03-03T09:01:24;12.66;63.97
67722;SHT31;58309;45.292;11.820;2023-03-03T09:03:49;13.46;63.22
67722;SHT31;58309;45.292;11.820;2023-03-03T09:06:15;14.49;60.43
67722;SHT31;58309;45.292;11.820;2023-03-03T09:08:40;14.94;57.26
67722;SHT31;58309;45.292;11.820;2023-03-03T09:11:11;15.69;55.03
67722;SHT31;58309;45.292;11.820;2023-03-03T09:13:37;15.61;52.58
67722;SHT31;58309;45.292;11.820;2023-03-03T09:16:13;16.41;51.77
67722;SHT31;58309;45.292;11.820;2023-03-03T09:18:39;16.27;52.29
67722;SHT31;58309;45.292;11.820;2023-03-03T09:21:27;16.48;52.77
67722;SHT31;58309;45.292;11.820;2023-03-03T09:24:00;15.63;53.52
67722;SHT31;58309;45.292;11.820;2023-03-03T09:31:39;17.39;49.55
67722;SHT31;58309;45.292;11.820;2023-03-03T09:36:44;16.84;50.01
67722;SHT31;58309;45.292;11.820;2023-03-03T10:12:32;19.45;45.68
67722;SHT31;58309;45.292;11.820;2023-03-03T10:17:33;19.23;45.71
67722;SHT31;58309;45.292;11.820;2023-03-03T10:22:55;20.60;43.54
67722;SHT31;58309;45.292;11.820;2023-03-03T10:34:11;21.89;40.34
67722;SHT31;58309;45.292;11.820;2023-03-03T11:01:20;22.73;39.87
67722;SHT31;58309;45.292;11.820;2023-03-03T11:12:07;22.75;37.57
67722;SHT31;58309;45.292;11.820;2023-03-03T11:20:16;22.22;40.20
67722;SHT31;58309;45.292;11.820;2023-03-03T11:22:46;23.12;37.64
67722;SHT31;58309;45.292;11.820;2023-03-03T11:25:31;23.82;37.63
67722;SHT31;58309;45.292;11.820;2023-03-03T11:37:08;20.91;42.54
67722;SHT31;58309;45.292;11.820;2023-03-03T11:39:36;22.24;39.28
67722;SHT31;58309;45.292;11.820;2023-03-03T11:45:00;20.37;44.45
67722;SHT31;58309;45.292;11.820;2023-03-03T11:47:50;21.73;41.27
67722;SHT31;58309;45.292;11.820;2023-03-03T11:50:21;20.83;43.46
67722;SHT31;58309;45.292;11.820;2023-03-03T11:52:58;20.99;42.28
67722;SHT31;58309;45.292;11.820;2023-03-03T11:55:35;19.96;45.40
67722;SHT31;58309;45.292;11.820;2023-03-03T12:09:26;20.67;44.45
67722;SHT31;58309;45.292;11.820;2023-03-03T12:12:07;21.22;44.38
67722;SHT31;58309;45.292;11.820;2023-03-03T12:15:13;20.05;43.39
67722;SHT31;58309;45.292;11.820;2023-03-03T12:26:11;23.42;37.99
67722;SHT31;58309;45.292;11.820;2023-03-03T12:28:55;22.03;41.11
67722;SHT31;58309;45.292;11.820;2023-03-03T12:34:25;21.59;39.85
67722;SHT31;58309;45.292;11.820;2023-03-03T12:37:10;22.51;40.36
67722;SHT31;58309;45.292;11.820;2023-03-03T12:42:29;20.39;42.94
67722;SHT31;58309;45.292;11.820;2023-03-03T12:45:08;20.63;40.91
67722;SHT31;58309;45.292;11.820;2023-03-03T12:47:38;19.66;43.12
67722;SHT31;58309;45.292;11.820;2023-03-03T12:53:23;20.17;44.27
67722;SHT31;58309;45.292;11.820;2023-03-03T12:55:56;19.83;44.87
67722;SHT31;58309;45.292;11.820;2023-03-03T13:10:06;17.02;51.26
67722;SHT31;58309;45.292;11.820;2023-03-03T13:12:43;16.92;51.25
67722;SHT31;58309;45.292;11.820;2023-03-03T13:15:37;17.26;51.27
67722;SHT31;58309;45.292;11.820;2023-03-03T13:20:53;17.67;51.19
67722;SHT31;58309;45.292;11.820;2023-03-03T13:26:14;17.29;53.04
67722;SHT31;58309;45.292;11.820;2023-03-03T13:29:14;17.75;51.57
67722;SHT31;58309;45.292;11.820;2023-03-03T13:31:48;17.51;49.50
67722;SHT31;58309;45.292;11.820;2023-03-03T13:34:29;17.50;51.51
67722;SHT31;58309;45.292;11.820;2023-03-03T13:37:04;17.77;47.56
67722;SHT31;58309;45.292;11.820;2023-03-03T13:39:42;18.32;46.36
67722;SHT31;58309;45.292;11.820;2023-03-03T13:42:52;18.51;48.64
67722;SHT31;58309;45.292;11.820;2023-03-03T13:48:41;17.90;47.59
67722;SHT31;58309;45.292;11.820;2023-03-03T14:10:20;16.96;52.20
67722;SHT31;58309;45.292;11.820;2023-03-03T14:13:10;17.27;52.24
67722;SHT31;58309;45.292;11.820;2023-03-03T14:18:27;17.57;52.29
67722;SHT31;58309;45.292;11.820;2023-03-03T14:20:59;17.43;53.21
67722;SHT31;58309;45.292;11.820;2023-03-03T14:26:21;16.57;51.98
67722;SHT31;58309;45.292;11.820;2023-03-03T14:28:48;16.82;54.75
67722;SHT31;58309;45.292;11.820;2023-03-03T14:31:38;16.43;52.90
67722;SHT31;58309;45.292;11.820;2023-03-03T14:36:38;15.93;57.08
67722;SHT31;58309;45.292;11.820;2023-03-03T14:39:42;16.21;56.44
67722;SHT31;58309;45.292;11.820;2023-03-03T14:42:28;16.68;56.25
67722;SHT31;58309;45.292;11.820;2023-03-03T14:44:55;16.95;52.81
67722;SHT31;58309;45.292;11.820;2023-03-03T14:47:24;16.92;54.11
67722;SHT31;58309;45.292;11.820;2023-03-03T14:49:55;16.62;54.34
67722;SHT31;58309;45.292;11.820;2023-03-03T14:52:32;16.60;56.19
67722;SHT31;58309;45.292;11.820;2023-03-03T14:54:59;16.43;56.01
67722;SHT31;58309;45.292;11.820;2023-03-03T15:05:30;15.03;59.50
67722;SHT31;58309;45.292;11.820;2023-03-03T15:10:43;15.07;59.42
67722;SHT31;58309;45.292;11.820;2023-03-03T15:18:29;14.94;60.38
67722;SHT31;58309;45.292;11.820;2023-03-03T15:21:21;14.76;59.68
67722;SHT31;58309;45.292;11.820;2023-03-03T15:26:44;14.22;60.51
67722;SHT31;58309;45.292;11.820;2023-03-03T15:29:36;14.29;62.12
67722;SHT31;58309;45.292;11.820;2023-03-03T15:35:21;14.30;62.38
67722;SHT31;58309;45.292;11.820;2023-03-03T15:38:03;14.28;62.00
67722;SHT31;58309;45.292;11.820;2023-03-03T15:40:50;14.15;62.28
67722;SHT31;58309;45.292;11.820;2023-03-03T15:48:40;13.92;63.81
67722;SHT31;58309;45.292;11.820;2023-03-03T15:56:47;13.46;65.48
67722;SHT31;58309;45.292;11.820;2023-03-03T16:04:36;12.82;67.84
67722;SHT31;58309;45.292;11.820;2023-03-03T16:24:32;12.48;71.41
67722;SHT31;58309;45.292;11.820;2023-03-03T16:35:13;12.46;71.59
67722;SHT31;58309;45.292;11.820;2023-03-03T16:40:23;12.38;72.59
67722;SHT31;58309;45.292;11.820;2023-03-03T16:42:58;12.25;72.25
67722;SHT31;58309;45.292;11.820;2023-03-03T16:45:34;12.21;72.74
67722;SHT31;58309;45.292;11.820;2023-03-03T16:54:31;11.84;74.79
67722;SHT31;58309;45.292;11.820;2023-03-03T16:57:04;11.69;75.34
67722;SHT31;58309;45.292;11.820;2023-03-03T16:59:51;11.56;76.01
67722;SHT31;58309;45.292;11.820;2023-03-03T17:04:54;11.28;76.36
67722;SHT31;58309;45.292;11.820;2023-03-03T17:10:26;11.00;77.03
67722;SHT31;58309;45.292;11.820;2023-03-03T17:13:39;10.80;77.77
67722;SHT31;58309;45.292;11.820;2023-03-03T17:29:52;9.59;81.19
67722;SHT31;58309;45.292;11.820;2023-03-03T17:32:48;9.34;81.63
67722;SHT31;58309;45.292;11.820;2023-03-03T17:43:20;8.55;84.87
67722;SHT31;58309;45.292;11.820;2023-03-03T17:45:48;8.42;85.81
67722;SHT31;58309;45.292;11.820;2023-03-03T17:59:34;7.84;87.96
67722;SHT31;58309;45.292;11.820;2023-03-03T18:11:12;7.63;89.59
67722;SHT31;58309;45.292;11.820;2023-03-03T18:21:47;7.33;90.30
67722;SHT31;58309;45.292;11.820;2023-03-03T18:24:31;7.26;90.69
67722;SHT31;58309;45.292;11.820;2023-03-03T18:30:24;7.16;90.73
67722;SHT31;58309;45.292;11.820;2023-03-03T18:37:54;7.05;91.28
67722;SHT31;58309;45.292;11.820;2023-03-03T18:40:31;6.98;91.71
67722;SHT31;58309;45.292;11.820;2023-03-03T18:42:57;6.87;91.58
67722;SHT31;58309;45.292;11.820;2023-03-03T18:50:34;6.80;92.57
67722;SHT31;58309;45.292;11.820;2023-03-03T18:55:49;6.63;92.41
67722;SHT31;58309;45.292;11.820;2023-03-03T19:00:47;6.51;93.40
67722;SHT31;58309;45.292;11.820;2023-03-03T19:03:27;6.39;93.22
67722;SHT31;58309;45.292;11.820;2023-03-03T19:05:53;6.26;93.37
67722;SHT31;58309;45.292;11.820;2023-03-03T19:08:46;6.20;94.37
67722;SHT31;58309;45.292;11.820;2023-03-03T19:11:49;6.12;94.49
67722;SHT31;58309;45.292;11.820;2023-03-03T19:16:42;6.01;94.56
67722;SHT31;58309;45.292;11.820;2023-03-03T19:19:10;5.98;94.64
67722;SHT31;58309;45.292;11.820;2023-03-03T19:21:37;5.96;94.70
67722;SHT31;58309;45.292;11.820;2023-03-03T19:24:27;5.95;94.75
67722;SHT31;58309;45.292;11.820;2023-03-03T19:27:05;5.88;95.03
67722;SHT31;58309;45.292;11.820;2023-03-03T19:49:34;5.89;94.34
67722;SHT31;58309;45.292;11.820;2023-03-03T19:52:22;5.98;93.90
67722;SHT31;58309;45.292;11.820;2023-03-03T19:58:04;5.95;93.46
67722;SHT31;58309;45.292;11.820;2023-03-03T20:00:41;5.96;92.60
67722;SHT31;58309;45.292;11.820;2023-03-03T20:03:25;5.96;92.15
67722;SHT31;58309;45.292;11.820;2023-03-03T20:16:25;5.75;92.55
67722;SHT31;58309;45.292;11.820;2023-03-03T20:28:00;5.52;93.36
67722;SHT31;58309;45.292;11.820;2023-03-03T20:33:26;5.72;92.69
67722;SHT31;58309;45.292;11.820;2023-03-03T20:39:07;6.12;91.40
67722;SHT31;58309;45.292;11.820;2023-03-03T20:41:41;6.41;89.50
67722;SHT31;58309;45.292;11.820;2023-03-03T20:44:27;6.30;89.82
67722;SHT31;58309;45.292;11.820;2023-03-03T20:50:45;6.46;88.98
67722;SHT31;58309;45.292;11.820;2023-03-03T21:01:15;6.67;87.80
67722;SHT31;58309;45.292;11.820;2023-03-03T21:03:43;6.63;87.60
67722;SHT31;58309;45.292;11.820;2023-03-03T21:06:14;6.49;87.68
67722;SHT31;58309;45.292;11.820;2023-03-03T21:11:41;6.25;89.17
67722;SHT31;58309;45.292;11.820;2023-03-03T21:14:22;6.15;89.43
67722;SHT31;58309;45.292;11.820;2023-03-03T21:16:49;6.18;88.83
67722;SHT31;58309;45.292;11.820;2023-03-03T21:19:31;6.13;89.49
67722;SHT31;58309;45.292;11.820;2023-03-03T21:21:58;6.10;89.31
67722;SHT31;58309;45.292;11.820;2023-03-03T21:32:44;5.77;90.46
67722;SHT31;58309;45.292;11.820;2023-03-03T21:35:14;5.67;90.82
67722;SHT31;58309;45.292;11.820;2023-03-03T21:37:51;5.55;91.40
67722;SHT31;58309;45.292;11.820;2023-03-03T21:40:22;5.46;92.07
67722;SHT31;58309;45.292;11.820;2023-03-03T21:42:50;5.48;91.45
67722;SHT31;58309;45.292;11.820;2023-03-03T21:45:16;5.44;91.23
67722;SHT31;58309;45.292;11.820;2023-03-03T21:47:45;5.33;91.92
67722;SHT31;58309;45.292;11.820;2023-03-03T21:50:10;5.26;92.65
67722;SHT31;58309;45.292;11.820;2023-03-03T21:52:37;5.12;92.60
67722;SHT31;58309;45.292;11.820;2023-03-03T21:55:03;5.03;92.96
67722;SHT31;58309;45.292;11.820;2023-03-03T21:57:28;5.07;93.31
67722;SHT31;58309;45.292;11.820;2023-03-03T21:59:54;5.26;92.24
67722;SHT31;58309;45.292;11.820;2023-03-03T22:02:20;5.51;91.49
67722;SHT31;58309;45.292;11.820;2023-03-03T22:04:45;5.55;90.61
67722;SHT31;58309;45.292;11.820;2023-03-03T22:07:11;5.48;90.69
67722;SHT31;58309;45.292;11.820;2023-03-03T22:09:37;5.38;91.32
67722;SHT31;58309;45.292;11.820;2023-03-03T22:12:03;5.48;91.18
67722;SHT31;58309;45.292;11.820;2023-03-03T22:14:29;5.61;90.77
67722;SHT31;58309;45.292;11.820;2023-03-03T22:16:54;5.71;90.11
67722;SHT31;58309;45.292;11.820;2023-03-03T22:19:21;5.81;89.62
67722;SHT31;58309;45.292;11.820;2023-03-03T22:21:47;5.96;89.55
67722;SHT31;58309;45.292;11.820;2023-03-03T22:24:14;5.87;90.01
67722;SHT31;58309;45.292;11.820;2023-03-03T22:26:40;5.89;89.75
67722;SHT31;58309;45.292;11.820;2023-03-03T22:29:05;5.82;89.89
67722;SHT31;58309;45.292;11.820;2023-03-03T22:31:31;5.74;90.69
67722;SHT31;58309;45.292;11.820;2023-03-03T22:33:57;5.64;91.31
67722;SHT31;58309;45.292;11.820;2023-03-03T22:36:23;5.62;91.53
67722;SHT31;58309;45.292;11.820;2023-03-03T22:38:49;5.68;91.31
67722;SHT31;58309;45.292;11.820;2023-03-03T22:41:14;5.69;91.59
67722;SHT31;58309;45.292;11.820;2023-03-03T22:43:40;5.67;91.77
67722;SHT31;58309;45.292;11.820;2023-03-03T22:46:06;5.71;91.17
67722;SHT31;58309;45.292;11.820;2023-03-03T22:48:32;5.69;91.32
67722;SHT31;58309;45.292;11.820;2023-03-03T22:50:57;5.71;90.91
67722;SHT31;58309;45.292;11.820;2023-03-03T22:53:24;5.77;90.87
67722;SHT31;58309;45.292;11.820;2023-03-03T22:55:50;5.71;91.04
67722;SHT31;58309;45.292;11.820;2023-03-03T22:58:16;5.58;91.43
67722;SHT31;58309;45.292;11.820;2023-03-03T23:00:45;5.44;92.04
67722;SHT31;58309;45.292;11.820;2023-03-03T23:03:11;5.36;92.57
67722;SHT31;58309;45.292;11.820;2023-03-03T23:05:37;5.34;92.43
67722;SHT31;58309;45.292;11.820;2023-03-03T23:08:04;5.31;92.96